»·PEaware :: SKW4214 KPHX-KOAK

SKW4214 :: KPHX-KOAK

FLIGHT INFORMATION

Flight Status: Arrived
Operator:
SkyWest Airlines
More flights by this operator :: More flights under this callsign
Pilot: Anonymous 12254 (12254)
Aircraft: CANADAIR CL-600 CRJ-200
(CRJ2)
More flights by this aircraft type
Origin: KPHX Phoenix Sky Harbor Intl
United States
Destination: KOAK Metro Oakland Intl
United States
More flights between these airports :: More routes between these airports
Route: KEENS2 HRRBR CURIV J212 DECAS BOILE GMN RGOOD EMZOH EMZOH3
File this flight plan on PilotEdge
Remarks:
Altitude:
(Current/Filed)
30,000ft
Speed:
(Current/Filed)
450kts
Departed: 24-May-20 11:46 AM
Arrived: 24-May-20 01:21 PM
Distance/Time
Traveled:
560nm/1:35
Distance/Time
To Go:
Arrived

Flight Plot

Page will automatically refresh every two minutes.

Flight plan parsing failed; only flown route is shown


Map Options




Map Legend


Flown Route
Filed Route
Departure Airport
Arrival Airport
Navaid (VOR, NDB)
Fix

Horizontal Profiles

Position Reports

Time Latitude Longitude Heading Altitude Ground
Speed
24-May-20 11:15 33.437259 -111.999883 92 1127ft 0kts
24-May-20 11:16 33.437259 -111.999883 92 1127ft 0kts
24-May-20 11:18 33.437259 -111.999883 92 1127ft 0kts
24-May-20 11:19 33.437259 -111.999883 92 1127ft 0kts
24-May-20 11:20 33.437259 -111.999883 92 1127ft 0kts
24-May-20 11:21 33.437259 -111.999883 92 1127ft 0kts
24-May-20 11:22 33.437259 -111.999883 92 1127ft 0kts
24-May-20 11:23 33.437259 -111.999883 92 1127ft 0kts
24-May-20 11:24 33.437259 -111.999883 92 1127ft 0kts
24-May-20 11:25 33.437259 -111.999883 92 1127ft 0kts
24-May-20 11:26 33.437259 -111.999883 92 1127ft 0kts
24-May-20 11:27 33.437259 -111.999883 92 1127ft 0kts
24-May-20 11:28 33.437259 -111.999883 92 1127ft 0kts
24-May-20 11:29 33.437259 -111.999883 92 1127ft 0kts
24-May-20 11:30 33.437259 -111.999883 92 1127ft 0kts
24-May-20 11:31 33.437259 -111.999883 92 1127ft 0kts
24-May-20 11:31 33.437259 -111.999883 92 1127ft 0kts
24-May-20 11:33 33.437259 -111.999883 92 1127ft 0kts
24-May-20 11:34 33.437259 -111.999883 92 1127ft 0kts
24-May-20 11:34 33.437259 -111.999883 92 1127ft 0kts
24-May-20 11:36 33.437259 -111.999883 92 1127ft 0kts
24-May-20 11:37 33.437259 -111.999883 92 1127ft 0kts
24-May-20 11:37 33.437259 -111.999883 92 1127ft 0kts
24-May-20 11:39 33.437259 -111.999883 92 1127ft 0kts
24-May-20 11:39 33.437259 -111.999883 92 1127ft 0kts
24-May-20 11:40 33.437115 -112.000567 1 1127ft 0kts
24-May-20 11:41 33.437115 -112.000567 1 1127ft 0kts
24-May-20 11:42 33.437241 -112.000564 1 1127ft 5kts
24-May-20 11:43 33.439765 -111.997191 87 1132ft 25kts
24-May-20 11:44 33.439971 -111.991156 29 1134ft 3kts
24-May-20 11:45 33.440849 -112.008997 270 1186ft 181kts
24-May-20 11:46 33.427412 -112.080719 250 2527ft 259kts
24-May-20 11:47 33.398884 -112.170778 249 4095ft 318kts
24-May-20 11:48 33.403482 -112.282471 279 5708ft 360kts
24-May-20 11:49 33.419229 -112.390455 279 7267ft 300kts
24-May-20 11:50 33.432501 -112.480590 280 8704ft 247kts
24-May-20 11:51 33.443365 -112.554727 280 10135ft 209kts
24-May-20 11:52 33.450077 -112.622790 273 11634ft 219kts
24-May-20 11:53 33.451454 -112.701877 272 13206ft 255kts
24-May-20 11:54 33.452804 -112.792871 276 14761ft 291kts
24-May-20 11:55 33.470265 -112.893020 284 16317ft 323kts
24-May-20 11:56 33.490651 -113.002636 285 17849ft 351kts
24-May-20 11:57 33.512603 -113.120803 285 19374ft 373kts
24-May-20 11:58 33.535520 -113.244932 285 20885ft 390kts
24-May-20 11:59 33.559114 -113.373521 285 22386ft 401kts
24-May-20 12:00 33.583166 -113.505341 286 23878ft 408kts
24-May-20 12:01 33.607976 -113.638500 286 25354ft 412kts
24-May-20 12:02 33.632902 -113.772904 286 26857ft 412kts
24-May-20 12:03 33.657624 -113.906991 286 28353ft 411kts
24-May-20 12:04 33.682047 -114.040159 286 29839ft 406kts
24-May-20 12:05 33.702954 -114.154763 286 30037ft 426kts
24-May-20 12:06 33.728758 -114.297224 285 30034ft 443kts
24-May-20 12:07 33.754946 -114.442831 285 30031ft 449kts
24-May-20 12:08 33.775642 -114.591943 278 30031ft 454kts
24-May-20 12:09 33.784686 -114.743806 277 30035ft 456kts
24-May-20 12:10 33.793265 -114.894601 277 30034ft 456kts
24-May-20 12:11 33.801723 -115.046472 277 30033ft 457kts
24-May-20 12:12 33.810037 -115.199281 277 30032ft 460kts
24-May-20 12:13 33.818196 -115.353038 277 30007ft 462kts
24-May-20 12:14 33.835709 -115.505090 289 29988ft 457kts
24-May-20 12:15 33.871260 -115.651760 288 29973ft 457kts
24-May-20 12:16 33.906827 -115.798346 288 29979ft 457kts
24-May-20 12:17 33.942325 -115.945473 288 29998ft 457kts
24-May-20 12:18 33.977551 -116.092347 288 30042ft 456kts
24-May-20 12:19 34.012558 -116.239136 288 30073ft 456kts
24-May-20 12:20 34.047509 -116.386556 288 30043ft 457kts
24-May-20 12:21 34.082288 -116.534129 288 30027ft 457kts
24-May-20 12:22 34.116896 -116.681832 288 30047ft 457kts
24-May-20 12:23 34.151245 -116.829267 288 30098ft 457kts
24-May-20 12:24 34.185523 -116.977181 287 30102ft 458kts
24-May-20 12:25 34.219756 -117.125921 287 30101ft 462kts
24-May-20 12:26 34.254130 -117.276304 287 30103ft 464kts
24-May-20 12:27 34.288250 -117.426387 287 30146ft 464kts
24-May-20 12:28 34.322206 -117.576670 287 30178ft 464kts
24-May-20 12:29 34.356057 -117.727437 286 30184ft 464kts
24-May-20 12:30 34.389726 -117.878325 286 30162ft 465kts
24-May-20 12:31 34.424761 -118.028931 295 30136ft 463kts
24-May-20 12:32 34.486655 -118.165030 300 30151ft 463kts
24-May-20 12:33 34.549306 -118.301405 300 30154ft 463kts
24-May-20 12:34 34.611892 -118.438153 300 30160ft 463kts
24-May-20 12:35 34.674038 -118.574473 300 30156ft 463kts
24-May-20 12:36 34.735865 -118.710630 299 30193ft 462kts
24-May-20 12:37 34.798245 -118.848012 303 30200ft 463kts
24-May-20 12:38 34.898416 -118.944205 323 30163ft 464kts
24-May-20 12:39 35.002753 -119.035767 324 30225ft 462kts
24-May-20 12:40 35.106453 -119.127161 324 30214ft 460kts
24-May-20 12:41 35.209818 -119.218567 324 30192ft 459kts
24-May-20 12:42 35.313125 -119.310223 324 30181ft 459kts
24-May-20 12:43 35.416048 -119.401834 324 30173ft 459kts
24-May-20 12:44 35.519489 -119.494205 324 30164ft 459kts
24-May-20 12:45 35.622347 -119.586356 324 30162ft 459kts
24-May-20 12:46 35.725282 -119.678876 323 30168ft 459kts
24-May-20 12:47 35.824725 -119.768548 324 29424ft 428kts
24-May-20 12:48 35.916954 -119.855170 317 28595ft 410kts
24-May-20 12:49 35.997750 -119.949858 317 28116ft 392kts
24-May-20 12:50 36.074819 -120.041324 317 28113ft 378kts
24-May-20 12:51 36.149748 -120.130526 317 28120ft 372kts
24-May-20 12:52 36.223588 -120.218677 317 28119ft 367kts
24-May-20 12:53 36.296859 -120.306393 317 28119ft 368kts
24-May-20 12:54 36.370331 -120.394593 317 28119ft 368kts
24-May-20 12:55 36.443835 -120.483076 317 28117ft 369kts
24-May-20 12:56 36.517262 -120.571712 317 28119ft 369kts
24-May-20 12:57 36.594473 -120.658955 319 27532ft 384kts
24-May-20 12:58 36.674940 -120.748189 319 26661ft 392kts
24-May-20 12:59 36.756962 -120.839393 319 25209ft 394kts
24-May-20 13:00 36.836949 -120.928098 319 23198ft 378kts
24-May-20 13:01 36.913147 -121.012717 319 21167ft 357kts
24-May-20 13:02 36.985872 -121.093712 320 19142ft 345kts
24-May-20 13:03 37.056519 -121.172590 320 17118ft 337kts
24-May-20 13:04 37.124611 -121.248807 321 15519ft 320kts
24-May-20 13:05 37.188414 -121.322574 320 14028ft 306kts
24-May-20 13:06 37.249312 -121.393402 320 12533ft 293kts
24-May-20 13:07 37.308255 -121.462111 320 11038ft 286kts
24-May-20 13:08 37.365857 -121.529418 319 9544ft 281kts
24-May-20 13:09 37.420331 -121.591918 320 8848ft 248kts
24-May-20 13:10 37.463565 -121.656216 308 8036ft 235kts
24-May-20 13:11 37.501052 -121.721389 307 7228ft 225kts
24-May-20 13:12 37.531532 -121.786456 282 7137ft 214kts
24-May-20 13:13 37.541229 -121.859278 281 7126ft 205kts
24-May-20 13:14 37.549822 -121.931000 280 6433ft 218kts
24-May-20 13:15 37.565508 -122.007560 310 4588ft 238kts
24-May-20 13:16 37.605414 -122.069982 308 3611ft 209kts
24-May-20 13:17 37.644507 -122.127670 309 2139ft 218kts
24-May-20 13:18 37.678050 -122.179080 310 893ft 163kts
24-May-20 13:19 37.703263 -122.216888 308 9ft 114kts
24-May-20 13:20 37.710305 -122.226032 340 9ft 1kts
24-May-20 13:21 37.711328 -122.223924 39 9ft 15kts
24-May-20 13:22 37.712847 -122.219369 138 9ft 14kts

Navigation Log

Ident Type
Flight plan parsing failed, navigation log unavailable